sensor_id;sensor_type;location;lat;lon;timestamp;temperature;humidity
13086;DHT22;6609;49.882;8.664;2023-11-19T00:05:13;9.40;99.90
13086;DHT22;6609;49.882;8.664;2023-11-19T00:10:09;9.40;99.90
13086;DHT22;6609;49.882;8.664;2023-11-19T00:12:37;9.40;99.90
13086;DHT22;6609;49.882;8.664;2023-11-19T00:15:05;9.50;99.90
13086;DHT22;6609;49.882;8.664;2023-11-19T00:20:01;9.50;99.90
13086;DHT22;6609;49.882;8.664;2023-11-19T00:24:58;9.50;99.90
13086;DHT22;6609;49.882;8.664;2023-11-19T00:29:54;9.60;99.90
13086;DHT22;6609;49.882;8.664;2023-11-19T00:32:20;9.60;99.90
13086;DHT22;6609;49.882;8.664;2023-11-19T00:37:14;9.60;99.90
13086;DHT22;6609;49.882;8.664;2023-11-19T00:42:09;9.70;99.90
13086;DHT22;6609;49.882;8.664;2023-11-19T00:44:38;9.70;99.90
13086;DHT22;6609;49.882;8.664;2023-11-19T00:51:59;9.80;99.90
13086;DHT22;6609;49.882;8.664;2023-11-19T01:01:48;9.80;99.90
13086;DHT22;6609;49.882;8.664;2023-11-19T01:09:11;9.90;99.90
13086;DHT22;6609;49.882;8.664;2023-11-19T01:19:00;9.80;99.90
13086;DHT22;6609;49.882;8.664;2023-11-19T01:23:57;9.80;99.90
13086;DHT22;6609;49.882;8.664;2023-11-19T01:28:52;9.70;99.90
13086;DHT22;6609;49.882;8.664;2023-11-19T01:36:14;9.70;99.90
13086;DHT22;6609;49.882;8.664;2023-11-19T01:38:41;9.70;99.90
13086;DHT22;6609;49.882;8.664;2023-11-19T01:46:05;9.70;99.90
13086;DHT22;6609;49.882;8.664;2023-11-19T01:48:33;9.80;99.90
13086;DHT22;6609;49.882;8.664;2023-11-19T01:53:30;9.80;99.90
13086;DHT22;6609;49.882;8.664;2023-11-19T01:58:24;9.80;99.90
13086;DHT22;6609;49.882;8.664;2023-11-19T02:00:51;9.90;99.90
13086;DHT22;6609;49.882;8.664;2023-11-19T02:03:19;9.90;99.90
13086;DHT22;6609;49.882;8.664;2023-11-19T02:05:48;9.90;99.90
13086;DHT22;6609;49.882;8.664;2023-11-19T02:08:16;9.90;99.90
13086;DHT22;6609;49.882;8.664;2023-11-19T02:10:44;10.00;99.90
13086;DHT22;6609;49.882;8.664;2023-11-19T02:13:11;10.00;99.90
13086;DHT22;6609;49.882;8.664;2023-11-19T02:18:22;10.00;99.90
13086;DHT22;6609;49.882;8.664;2023-11-19T02:20:53;10.00;99.90
13086;DHT22;6609;49.882;8.664;2023-11-19T02:23:20;10.00;99.90
13086;DHT22;6609;49.882;8.664;2023-11-19T02:25:56;10.10;99.90
13086;DHT22;6609;49.882;8.664;2023-11-19T02:28:25;10.10;99.90
13086;DHT22;6609;49.882;8.664;2023-11-19T02:30:52;10.10;99.90
13086;DHT22;6609;49.882;8.664;2023-11-19T02:33:19;10.20;99.90
13086;DHT22;6609;49.882;8.664;2023-11-19T02:40:41;10.30;99.90
13086;DHT22;6609;49.882;8.664;2023-11-19T02:45:36;10.30;99.90
13086;DHT22;6609;49.882;8.664;2023-11-19T02:48:04;10.30;99.90
13086;DHT22;6609;49.882;8.664;2023-11-19T02:50:31;10.30;99.90
13086;DHT22;6609;49.882;8.664;2023-11-19T02:57:56;10.40;99.90
13086;DHT22;6609;49.882;8.664;2023-11-19T03:08:12;10.50;99.90
13086;DHT22;6609;49.882;8.664;2023-11-19T03:13:11;10.50;99.90
13086;DHT22;6609;49.882;8.664;2023-11-19T03:18:06;10.50;99.90
13086;DHT22;6609;49.882;8.664;2023-11-19T03:20:33;10.50;99.90
13086;DHT22;6609;49.882;8.664;2023-11-19T03:30:26;10.50;99.90
13086;DHT22;6609;49.882;8.664;2023-11-19T03:32:53;10.50;99.90
13086;DHT22;6609;49.882;8.664;2023-11-19T03:35:22;10.50;99.90
13086;DHT22;6609;49.882;8.664;2023-11-19T03:37:48;10.40;99.90
13086;DHT22;6609;49.882;8.664;2023-11-19T03:45:09;10.40;99.90
13086;DHT22;6609;49.882;8.664;2023-11-19T03:47:36;10.40;99.90
13086;DHT22;6609;49.882;8.664;2023-11-19T03:50:05;10.40;99.90
13086;DHT22;6609;49.882;8.664;2023-11-19T03:55:00;10.40;99.90
13086;DHT22;6609;49.882;8.664;2023-11-19T03:57:27;10.50;99.90
13086;DHT22;6609;49.882;8.664;2023-11-19T04:04:53;10.50;99.90
13086;DHT22;6609;49.882;8.664;2023-11-19T04:07:21;10.50;99.90
13086;DHT22;6609;49.882;8.664;2023-11-19T04:09:49;10.50;99.90
13086;DHT22;6609;49.882;8.664;2023-11-19T04:19:37;10.50;99.90
13086;DHT22;6609;49.882;8.664;2023-11-19T04:22:07;10.50;99.90
13086;DHT22;6609;49.882;8.664;2023-11-19T04:24:33;10.50;99.90
13086;DHT22;6609;49.882;8.664;2023-11-19T04:27:01;10.50;99.90
13086;DHT22;6609;49.882;8.664;2023-11-19T04:29:30;10.50;99.90
13086;DHT22;6609;49.882;8.664;2023-11-19T04:36:53;10.60;99.90
13086;DHT22;6609;49.882;8.664;2023-11-19T04:44:16;10.60;99.90
13086;DHT22;6609;49.882;8.664;2023-11-19T04:46:43;10.60;99.90
13086;DHT22;6609;49.882;8.664;2023-11-19T04:49:11;10.60;99.90
13086;DHT22;6609;49.882;8.664;2023-11-19T04:59:01;10.70;99.90
13086;DHT22;6609;49.882;8.664;2023-11-19T05:06:26;10.80;99.90
13086;DHT22;6609;49.882;8.664;2023-11-19T05:08:53;10.80;99.90
13086;DHT22;6609;49.882;8.664;2023-11-19T05:11:20;10.80;99.90
13086;DHT22;6609;49.882;8.664;2023-11-19T05:18:42;10.90;99.90
13086;DHT22;6609;49.882;8.664;2023-11-19T05:28:30;10.90;99.90
13086;DHT22;6609;49.882;8.664;2023-11-19T05:33:24;11.00;99.90
13086;DHT22;6609;49.882;8.664;2023-11-19T05:35:53;11.00;99.90
13086;DHT22;6609;49.882;8.664;2023-11-19T05:40:47;11.10;99.90
13086;DHT22;6609;49.882;8.664;2023-11-19T05:43:15;11.10;99.90
13086;DHT22;6609;49.882;8.664;2023-11-19T05:53:04;11.20;99.90
13086;DHT22;6609;49.882;8.664;2023-11-19T05:55:34;11.20;99.90
13086;DHT22;6609;49.882;8.664;2023-11-19T05:58:01;11.20;99.90
13086;DHT22;6609;49.882;8.664;2023-11-19T06:00:28;11.30;99.90
13086;DHT22;6609;49.882;8.664;2023-11-19T06:05:23;11.30;99.90
13086;DHT22;6609;49.882;8.664;2023-11-19T06:07:49;11.30;99.90
13086;DHT22;6609;49.882;8.664;2023-11-19T06:10:18;11.30;99.90
13086;DHT22;6609;49.882;8.664;2023-11-19T06:12:46;11.30;99.90
13086;DHT22;6609;49.882;8.664;2023-11-19T06:17:40;11.40;99.90
13086;DHT22;6609;49.882;8.664;2023-11-19T06:20:07;11.40;99.90
13086;DHT22;6609;49.882;8.664;2023-11-19T06:27:34;11.40;99.90
13086;DHT22;6609;49.882;8.664;2023-11-19T06:34:55;11.40;99.90
13086;DHT22;6609;49.882;8.664;2023-11-19T06:39:49;11.40;99.90
13086;DHT22;6609;49.882;8.664;2023-11-19T06:42:16;11.40;99.90
13086;DHT22;6609;49.882;8.664;2023-11-19T06:47:11;11.40;99.90
13086;DHT22;6609;49.882;8.664;2023-11-19T06:54:32;11.50;99.90
13086;DHT22;6609;49.882;8.664;2023-11-19T06:56:59;11.50;99.90
13086;DHT22;6609;49.882;8.664;2023-11-19T07:01:54;11.50;99.90
13086;DHT22;6609;49.882;8.664;2023-11-19T07:04:21;11.60;99.90
13086;DHT22;6609;49.882;8.664;2023-11-19T07:09:15;11.50;99.90
13086;DHT22;6609;49.882;8.664;2023-11-19T07:14:10;11.60;99.90
13086;DHT22;6609;49.882;8.664;2023-11-19T07:19:06;11.60;99.90
13086;DHT22;6609;49.882;8.664;2023-11-19T07:21:33;11.60;99.90
13086;DHT22;6609;49.882;8.664;2023-11-19T07:26:27;11.60;99.90
13086;DHT22;6609;49.882;8.664;2023-11-19T07:33:49;11.70;99.90
13086;DHT22;6609;49.882;8.664;2023-11-19T07:38:45;11.70;99.90
13086;DHT22;6609;49.882;8.664;2023-11-19T07:43:42;11.80;99.90
13086;DHT22;6609;49.882;8.664;2023-11-19T07:46:13;11.80;99.90
13086;DHT22;6609;49.882;8.664;2023-11-19T07:51:08;11.80;99.90
13086;DHT22;6609;49.882;8.664;2023-11-19T07:53:36;11.90;99.90
13086;DHT22;6609;49.882;8.664;2023-11-19T07:56:04;12.00;99.90
13086;DHT22;6609;49.882;8.664;2023-11-19T07:58:31;12.00;99.90
13086;DHT22;6609;49.882;8.664;2023-11-19T08:00:58;12.10;99.90
13086;DHT22;6609;49.882;8.664;2023-11-19T08:05:55;12.10;99.90
13086;DHT22;6609;49.882;8.664;2023-11-19T08:10:51;12.20;99.90
13086;DHT22;6609;49.882;8.664;2023-11-19T08:13:18;12.30;99.90
13086;DHT22;6609;49.882;8.664;2023-11-19T08:28:04;12.40;99.90
13086;DHT22;6609;49.882;8.664;2023-11-19T08:30:30;12.40;99.90
13086;DHT22;6609;49.882;8.664;2023-11-19T08:42:50;12.90;99.90
13086;DHT22;6609;49.882;8.664;2023-11-19T08:45:18;13.10;99.90
13086;DHT22;6609;49.882;8.664;2023-11-19T08:47:45;13.10;99.90
13086;DHT22;6609;49.882;8.664;2023-11-19T08:52:39;13.00;99.90
13086;DHT22;6609;49.882;8.664;2023-11-19T08:55:06;12.90;99.90
13086;DHT22;6609;49.882;8.664;2023-11-19T08:59:59;12.80;99.90
13086;DHT22;6609;49.882;8.664;2023-11-19T09:02:27;12.80;99.90
13086;DHT22;6609;49.882;8.664;2023-11-19T09:07:21;12.70;99.90
13086;DHT22;6609;49.882;8.664;2023-11-19T09:12:15;12.80;99.90
13086;DHT22;6609;49.882;8.664;2023-11-19T09:17:09;12.80;99.90
13086;DHT22;6609;49.882;8.664;2023-11-19T09:29:25;12.80;99.90
13086;DHT22;6609;49.882;8.664;2023-11-19T09:34:19;13.60;99.90
13086;DHT22;6609;49.882;8.664;2023-11-19T09:39:14;14.30;99.90
13086;DHT22;6609;49.882;8.664;2023-11-19T09:41:43;14.20;99.90
13086;DHT22;6609;49.882;8.664;2023-11-19T09:46:38;13.80;99.90
13086;DHT22;6609;49.882;8.664;2023-11-19T09:49:07;13.70;99.90
13086;DHT22;6609;49.882;8.664;2023-11-19T09:54:03;13.50;99.80
13086;DHT22;6609;49.882;8.664;2023-11-19T09:58:59;13.50;99.50
13086;DHT22;6609;49.882;8.664;2023-11-19T10:03:54;13.40;99.40
13086;DHT22;6609;49.882;8.664;2023-11-19T10:11:17;13.40;99.40
13086;DHT22;6609;49.882;8.664;2023-11-19T10:16:13;13.30;99.30
13086;DHT22;6609;49.882;8.664;2023-11-19T10:23:49;13.30;99.50
13086;DHT22;6609;49.882;8.664;2023-11-19T10:26:19;13.30;99.60
13086;DHT22;6609;49.882;8.664;2023-11-19T10:28:46;13.30;99.60
13086;DHT22;6609;49.882;8.664;2023-11-19T10:31:13;13.30;99.70
13086;DHT22;6609;49.882;8.664;2023-11-19T10:33:40;13.30;99.80
13086;DHT22;6609;49.882;8.664;2023-11-19T10:43:31;13.30;99.90
13086;DHT22;6609;49.882;8.664;2023-11-19T10:46:10;13.30;99.90
13086;DHT22;6609;49.882;8.664;2023-11-19T10:53:36;13.40;99.90
13086;DHT22;6609;49.882;8.664;2023-11-19T11:01:07;13.50;99.90
13086;DHT22;6609;49.882;8.664;2023-11-19T11:03:39;13.50;99.90
13086;DHT22;6609;49.882;8.664;2023-11-19T11:06:06;13.50;99.90
13086;DHT22;6609;49.882;8.664;2023-11-19T11:11:05;13.50;99.90
13086;DHT22;6609;49.882;8.664;2023-11-19T11:23:52;13.60;99.70
13086;DHT22;6609;49.882;8.664;2023-11-19T11:26:41;13.70;99.70
13086;DHT22;6609;49.882;8.664;2023-11-19T11:31:56;14.10;99.90
13086;DHT22;6609;49.882;8.664;2023-11-19T11:34:55;14.30;99.50
13086;DHT22;6609;49.882;8.664;2023-11-19T11:50:13;14.20;97.00
13086;DHT22;6609;49.882;8.664;2023-11-19T12:07:54;14.60;95.40
13086;DHT22;6609;49.882;8.664;2023-11-19T12:10:24;14.60;94.80
13086;DHT22;6609;49.882;8.664;2023-11-19T12:20:20;15.10;93.10
13086;DHT22;6609;49.882;8.664;2023-11-19T12:22:47;15.20;92.30
13086;DHT22;6609;49.882;8.664;2023-11-19T12:27:45;15.30;89.20
13086;DHT22;6609;49.882;8.664;2023-11-19T12:32:40;15.20;85.30
13086;DHT22;6609;49.882;8.664;2023-11-19T12:35:08;15.10;84.00
13086;DHT22;6609;49.882;8.664;2023-11-19T12:37:42;15.10;82.30
13086;DHT22;6609;49.882;8.664;2023-11-19T12:40:16;15.10;78.70
13086;DHT22;6609;49.882;8.664;2023-11-19T12:42:43;15.10;78.80
13086;DHT22;6609;49.882;8.664;2023-11-19T13:02:46;15.20;72.20
13086;DHT22;6609;49.882;8.664;2023-11-19T13:05:24;15.20;70.40
13086;DHT22;6609;49.882;8.664;2023-11-19T13:07:57;15.20;70.10
13086;DHT22;6609;49.882;8.664;2023-11-19T13:10:25;15.20;70.60
13086;DHT22;6609;49.882;8.664;2023-11-19T13:13:05;15.20;70.60
13086;DHT22;6609;49.882;8.664;2023-11-19T13:15:32;15.20;70.70
13086;DHT22;6609;49.882;8.664;2023-11-19T13:30:19;15.00;71.40
13086;DHT22;6609;49.882;8.664;2023-11-19T13:32:47;15.10;71.40
13086;DHT22;6609;49.882;8.664;2023-11-19T13:40:10;15.20;69.00
13086;DHT22;6609;49.882;8.664;2023-11-19T13:42:39;15.20;68.80
13086;DHT22;6609;49.882;8.664;2023-11-19T13:45:09;15.20;68.60
13086;DHT22;6609;49.882;8.664;2023-11-19T13:50:08;15.20;67.90
13086;DHT22;6609;49.882;8.664;2023-11-19T13:52:35;15.10;67.80
13086;DHT22;6609;49.882;8.664;2023-11-19T14:02:29;14.90;69.50
13086;DHT22;6609;49.882;8.664;2023-11-19T14:07:22;14.80;69.40
13086;DHT22;6609;49.882;8.664;2023-11-19T14:09:49;14.80;69.80
13086;DHT22;6609;49.882;8.664;2023-11-19T14:14:43;14.80;70.00
13086;DHT22;6609;49.882;8.664;2023-11-19T14:22:06;14.60;70.80
13086;DHT22;6609;49.882;8.664;2023-11-19T14:29:28;14.60;70.30
13086;DHT22;6609;49.882;8.664;2023-11-19T14:44:15;14.60;71.00
13086;DHT22;6609;49.882;8.664;2023-11-19T14:49:08;14.70;71.50
13086;DHT22;6609;49.882;8.664;2023-11-19T14:56:32;14.60;70.50
13086;DHT22;6609;49.882;8.664;2023-11-19T14:58:58;14.60;70.00
13086;DHT22;6609;49.882;8.664;2023-11-19T15:06:23;14.50;67.80
13086;DHT22;6609;49.882;8.664;2023-11-19T15:08:51;14.50;67.70
13086;DHT22;6609;49.882;8.664;2023-11-19T15:11:19;14.50;67.70
13086;DHT22;6609;49.882;8.664;2023-11-19T15:16:14;14.40;67.90
13086;DHT22;6609;49.882;8.664;2023-11-19T15:18:47;14.30;67.60
13086;DHT22;6609;49.882;8.664;2023-11-19T15:23:41;14.20;67.60
13086;DHT22;6609;49.882;8.664;2023-11-19T15:28:37;14.10;67.50
13086;DHT22;6609;49.882;8.664;2023-11-19T15:31:04;14.10;67.70
13086;DHT22;6609;49.882;8.664;2023-11-19T15:33:30;14.10;67.60
13086;DHT22;6609;49.882;8.664;2023-11-19T15:35:57;14.00;67.50
13086;DHT22;6609;49.882;8.664;2023-11-19T15:40:52;14.00;67.10
13086;DHT22;6609;49.882;8.664;2023-11-19T15:45:49;13.90;67.00
13086;DHT22;6609;49.882;8.664;2023-11-19T15:50:43;13.80;66.90
13086;DHT22;6609;49.882;8.664;2023-11-19T15:58:04;13.70;67.10
13086;DHT22;6609;49.882;8.664;2023-11-19T16:00:31;13.80;67.00
13086;DHT22;6609;49.882;8.664;2023-11-19T16:02:59;13.70;66.80
13086;DHT22;6609;49.882;8.664;2023-11-19T16:07:53;13.70;66.80
13086;DHT22;6609;49.882;8.664;2023-11-19T16:12:47;13.70;66.90
13086;DHT22;6609;49.882;8.664;2023-11-19T16:17:41;13.70;66.80
13086;DHT22;6609;49.882;8.664;2023-11-19T16:22:38;13.70;67.10
13086;DHT22;6609;49.882;8.664;2023-11-19T16:25:08;13.70;67.10
13086;DHT22;6609;49.882;8.664;2023-11-19T16:27:35;13.70;67.10
13086;DHT22;6609;49.882;8.664;2023-11-19T16:30:02;13.70;67.30
13086;DHT22;6609;49.882;8.664;2023-11-19T16:32:30;13.70;67.60
13086;DHT22;6609;49.882;8.664;2023-11-19T16:37:27;13.60;67.40
13086;DHT22;6609;49.882;8.664;2023-11-19T16:39:53;13.60;67.20
13086;DHT22;6609;49.882;8.664;2023-11-19T16:42:20;13.60;67.30
13086;DHT22;6609;49.882;8.664;2023-11-19T16:44:48;13.60;66.90
13086;DHT22;6609;49.882;8.664;2023-11-19T16:47:15;13.60;67.10
13086;DHT22;6609;49.882;8.664;2023-11-19T16:52:08;13.50;67.30
13086;DHT22;6609;49.882;8.664;2023-11-19T16:54:37;13.50;67.10
13086;DHT22;6609;49.882;8.664;2023-11-19T16:57:04;13.50;67.10
13086;DHT22;6609;49.882;8.664;2023-11-19T16:59:31;13.50;67.20
13086;DHT22;6609;49.882;8.664;2023-11-19T17:04:24;13.50;67.20
13086;DHT22;6609;49.882;8.664;2023-11-19T17:06:52;13.50;67.40
13086;DHT22;6609;49.882;8.664;2023-11-19T17:09:19;13.50;67.50
13086;DHT22;6609;49.882;8.664;2023-11-19T17:11:47;13.50;67.30
13086;DHT22;6609;49.882;8.664;2023-11-19T17:16:41;13.50;67.60
13086;DHT22;6609;49.882;8.664;2023-11-19T17:21:35;13.40;67.70
13086;DHT22;6609;49.882;8.664;2023-11-19T17:24:02;13.40;68.10
13086;DHT22;6609;49.882;8.664;2023-11-19T17:26:29;13.40;68.20
13086;DHT22;6609;49.882;8.664;2023-11-19T17:28:57;13.40;68.30
13086;DHT22;6609;49.882;8.664;2023-11-19T17:31:23;13.40;68.40
13086;DHT22;6609;49.882;8.664;2023-11-19T17:33:50;13.40;68.50
13086;DHT22;6609;49.882;8.664;2023-11-19T17:41:11;13.30;68.20
13086;DHT22;6609;49.882;8.664;2023-11-19T17:43:37;13.30;68.10
13086;DHT22;6609;49.882;8.664;2023-11-19T17:55:57;13.30;68.00
13086;DHT22;6609;49.882;8.664;2023-11-19T17:58:24;13.30;68.00
13086;DHT22;6609;49.882;8.664;2023-11-19T18:03:19;13.30;67.70
13086;DHT22;6609;49.882;8.664;2023-11-19T18:05:46;13.20;67.60
13086;DHT22;6609;49.882;8.664;2023-11-19T18:08:14;13.20;67.30
13086;DHT22;6609;49.882;8.664;2023-11-19T18:18:04;13.10;67.50
13086;DHT22;6609;49.882;8.664;2023-11-19T18:20:32;13.10;67.30
13086;DHT22;6609;49.882;8.664;2023-11-19T18:27:54;13.10;67.00
13086;DHT22;6609;49.882;8.664;2023-11-19T18:30:20;13.10;67.10
13086;DHT22;6609;49.882;8.664;2023-11-19T18:32:47;13.10;67.20
13086;DHT22;6609;49.882;8.664;2023-11-19T18:37:43;13.10;67.00
13086;DHT22;6609;49.882;8.664;2023-11-19T18:40:11;13.10;67.10
13086;DHT22;6609;49.882;8.664;2023-11-19T18:45:07;13.00;67.10
13086;DHT22;6609;49.882;8.664;2023-11-19T18:47:34;13.00;67.30
13086;DHT22;6609;49.882;8.664;2023-11-19T18:50:03;13.00;67.30
13086;DHT22;6609;49.882;8.664;2023-11-19T18:54:59;13.00;67.00
13086;DHT22;6609;49.882;8.664;2023-11-19T18:59:53;12.90;67.10
13086;DHT22;6609;49.882;8.664;2023-11-19T19:14:39;12.80;67.60
13086;DHT22;6609;49.882;8.664;2023-11-19T19:22:04;12.70;68.60
13086;DHT22;6609;49.882;8.664;2023-11-19T19:29:26;12.70;69.00
13086;DHT22;6609;49.882;8.664;2023-11-19T19:41:41;12.80;70.10
13086;DHT22;6609;49.882;8.664;2023-11-19T19:44:08;12.80;70.30
13086;DHT22;6609;49.882;8.664;2023-11-19T19:46:36;12.80;70.50
13086;DHT22;6609;49.882;8.664;2023-11-19T19:54:00;12.80;71.40
13086;DHT22;6609;49.882;8.664;2023-11-19T20:03:52;12.80;72.20
13086;DHT22;6609;49.882;8.664;2023-11-19T20:11:15;12.90;72.20
13086;DHT22;6609;49.882;8.664;2023-11-19T20:16:09;12.90;72.20
13086;DHT22;6609;49.882;8.664;2023-11-19T20:21:04;12.90;72.20
13086;DHT22;6609;49.882;8.664;2023-11-19T20:26:00;12.90;72.20
13086;DHT22;6609;49.882;8.664;2023-11-19T20:35:49;13.00;72.20
13086;DHT22;6609;49.882;8.664;2023-11-19T20:38:17;12.90;72.20
13086;DHT22;6609;49.882;8.664;2023-11-19T20:48:05;13.00;72.50
13086;DHT22;6609;49.882;8.664;2023-11-19T20:50:31;12.90;72.60
13086;DHT22;6609;49.882;8.664;2023-11-19T20:52:59;12.90;72.70
13086;DHT22;6609;49.882;8.664;2023-11-19T21:00:22;13.00;72.90
13086;DHT22;6609;49.882;8.664;2023-11-19T21:02:49;13.00;73.10
13086;DHT22;6609;49.882;8.664;2023-11-19T21:12:43;13.00;73.10
13086;DHT22;6609;49.882;8.664;2023-11-19T21:15:12;13.00;73.10
13086;DHT22;6609;49.882;8.664;2023-11-19T21:20:06;13.00;73.20
13086;DHT22;6609;49.882;8.664;2023-11-19T21:25:01;13.00;72.90
13086;DHT22;6609;49.882;8.664;2023-11-19T21:29:57;13.00;72.80
13086;DHT22;6609;49.882;8.664;2023-11-19T21:32:24;13.00;72.80
13086;DHT22;6609;49.882;8.664;2023-11-19T21:34:51;13.00;72.80
13086;DHT22;6609;49.882;8.664;2023-11-19T21:44:39;13.00;72.90
13086;DHT22;6609;49.882;8.664;2023-11-19T21:47:07;13.00;72.80
13086;DHT22;6609;49.882;8.664;2023-11-19T21:52:03;13.00;72.90
13086;DHT22;6609;49.882;8.664;2023-11-19T22:01:55;13.00;73.10
13086;DHT22;6609;49.882;8.664;2023-11-19T22:04:23;13.00;73.00
13086;DHT22;6609;49.882;8.664;2023-11-19T22:06:52;13.00;72.80
13086;DHT22;6609;49.882;8.664;2023-11-19T22:16:41;13.10;72.90
13086;DHT22;6609;49.882;8.664;2023-11-19T22:24:04;13.10;72.80
13086;DHT22;6609;49.882;8.664;2023-11-19T22:28:58;13.00;72.70
13086;DHT22;6609;49.882;8.664;2023-11-19T22:36:20;13.10;72.90
13086;DHT22;6609;49.882;8.664;2023-11-19T22:43:44;13.10;72.90
13086;DHT22;6609;49.882;8.664;2023-11-19T22:48:38;13.10;72.70
13086;DHT22;6609;49.882;8.664;2023-11-19T22:56:02;13.10;72.60
13086;DHT22;6609;49.882;8.664;2023-11-19T23:03:24;13.10;72.60
13086;DHT22;6609;49.882;8.664;2023-11-19T23:10:44;13.10;73.00
13086;DHT22;6609;49.882;8.664;2023-11-19T23:18:06;13.20;73.90
13086;DHT22;6609;49.882;8.664;2023-11-19T23:20:33;13.20;73.80
13086;DHT22;6609;49.882;8.664;2023-11-19T23:27:55;13.20;73.60
13086;DHT22;6609;49.882;8.664;2023-11-19T23:30:23;13.20;73.40
13086;DHT22;6609;49.882;8.664;2023-11-19T23:42:39;13.20;73.70
13086;DHT22;6609;49.882;8.664;2023-11-19T23:54:58;13.20;73.50
13086;DHT22;6609;49.882;8.664;2023-11-19T23:59:52;13.10;73.60
